Moody AFB, Georgia
Current Conditions -  °F | °C
As of 1:58 PM on Friday 24 Oct 2014 (Local Time) from KVAD Reporting Station
Clear Clear  
Wind Chill: 73°   Ceiling: Unl
Heat Index: 73°   Visibility: 10mi
Dew Point: 42°   Wind: 5mph
Humidity: 33%   Direction: 10°N
Pressure: 30.01"   Gusts: NA
Location:  30.9753°N, 83.2042°W
Report Text: KVAD 241758Z AUTO 01004KT 10SM CLR 23/05 A3001 RMK AO2 RAB1745E1755 SLP164 P0000 60000 T02270054 10234 20084 57020 $
Loading
Personal Weather Stations






























Interactive Weather Map
Tropical Storm Tracking
New forecast layout! Learn more

10-Day Weather Forecast

Advertisements
Track Severe Weather on mobile